Polkville, Mississippi
Current Conditions -  °F | °C
As of 3:54 PM on Saturday 25 Oct 2014 (Local Time) from KJAN Reporting Station
Clear Clear  
Wind Chill: 81°   Ceiling: Unl
Heat Index: 81°   Visibility: 10mi
Dew Point: 59°   Wind: 5mph
Humidity: 47%   Direction: NA
Pressure: 30.07"   Gusts: NA
Location:  32.4637°N, 89.5548°W
Report Text: KJAN 252054Z VRB04KT 10SM CLR 27/15 A3007 RMK AO2 SLP178 T02720150 56020
Loading
Personal Weather Stations






























Interactive Weather Map New forecast layout! Learn more

10-Day Weather Forecast

Advertisements
Track Severe Weather on mobile